sensor_id;sensor_type;location;lat;lon;timestamp;P1;durP1;ratioP1;P2;durP2;ratioP2
4011;SDS011;2020;48.682;9.024;2023-05-03T00:01:53;3.17;;;2.97;;
4011;SDS011;2020;48.682;9.024;2023-05-03T00:04:18;2.33;;;2.23;;
4011;SDS011;2020;48.682;9.024;2023-05-03T00:06:44;3.63;;;2.87;;
4011;SDS011;2020;48.682;9.024;2023-05-03T00:09:09;6.57;;;4.07;;
4011;SDS011;2020;48.682;9.024;2023-05-03T00:11:35;2.70;;;2.50;;
4011;SDS011;2020;48.682;9.024;2023-05-03T00:14:01;2.93;;;2.70;;
4011;SDS011;2020;48.682;9.024;2023-05-03T00:16:26;2.60;;;2.40;;
4011;SDS011;2020;48.682;9.024;2023-05-03T00:18:51;2.60;;;2.40;;
4011;SDS011;2020;48.682;9.024;2023-05-03T00:21:16;2.40;;;2.10;;
4011;SDS011;2020;48.682;9.024;2023-05-03T00:23:42;3.57;;;3.30;;
4011;SDS011;2020;48.682;9.024;2023-05-03T00:26:07;3.03;;;2.77;;
4011;SDS011;2020;48.682;9.024;2023-05-03T00:28:32;3.30;;;2.70;;
4011;SDS011;2020;48.682;9.024;2023-05-03T00:31:05;2.60;;;2.50;;
4011;SDS011;2020;48.682;9.024;2023-05-03T00:33:31;2.43;;;2.33;;
4011;SDS011;2020;48.682;9.024;2023-05-03T00:35:56;4.10;;;3.80;;
4011;SDS011;2020;48.682;9.024;2023-05-03T00:38:21;2.60;;;2.40;;
4011;SDS011;2020;48.682;9.024;2023-05-03T00:40:52;2.30;;;2.20;;
4011;SDS011;2020;48.682;9.024;2023-05-03T00:43:18;3.30;;;3.00;;
4011;SDS011;2020;48.682;9.024;2023-05-03T00:45:43;3.73;;;2.43;;
4011;SDS011;2020;48.682;9.024;2023-05-03T00:48:10;3.00;;;2.80;;
4011;SDS011;2020;48.682;9.024;2023-05-03T00:50:36;3.00;;;2.70;;
4011;SDS011;2020;48.682;9.024;2023-05-03T00:53:02;3.83;;;2.57;;
4011;SDS011;2020;48.682;9.024;2023-05-03T00:55:28;2.47;;;2.37;;
4011;SDS011;2020;48.682;9.024;2023-05-03T00:57:55;2.07;;;2.00;;
4011;SDS011;2020;48.682;9.024;2023-05-03T01:00:21;2.20;;;2.10;;
4011;SDS011;2020;48.682;9.024;2023-05-03T01:02:47;2.20;;;1.77;;
4011;SDS011;2020;48.682;9.024;2023-05-03T01:05:13;2.70;;;2.50;;
4011;SDS011;2020;48.682;9.024;2023-05-03T01:10:18;2.87;;;2.67;;
4011;SDS011;2020;48.682;9.024;2023-05-03T01:18:19;3.47;;;3.27;;
4011;SDS011;2020;48.682;9.024;2023-05-03T01:20:48;2.30;;;2.20;;
4011;SDS011;2020;48.682;9.024;2023-05-03T01:23:19;1.93;;;1.83;;
4011;SDS011;2020;48.682;9.024;2023-05-03T01:25:54;2.57;;;2.40;;
4011;SDS011;2020;48.682;9.024;2023-05-03T01:28:20;2.60;;;2.50;;
4011;SDS011;2020;48.682;9.024;2023-05-03T01:30:45;3.23;;;2.50;;
4011;SDS011;2020;48.682;9.024;2023-05-03T01:33:16;2.83;;;2.63;;
4011;SDS011;2020;48.682;9.024;2023-05-03T01:35:54;3.30;;;2.90;;
4011;SDS011;2020;48.682;9.024;2023-05-03T01:38:24;4.60;;;2.40;;
4011;SDS011;2020;48.682;9.024;2023-05-03T01:40:54;2.70;;;2.50;;
4011;SDS011;2020;48.682;9.024;2023-05-03T01:43:23;2.23;;;2.13;;
4011;SDS011;2020;48.682;9.024;2023-05-03T01:45:49;3.10;;;2.80;;
4011;SDS011;2020;48.682;9.024;2023-05-03T01:48:16;4.40;;;4.00;;
4011;SDS011;2020;48.682;9.024;2023-05-03T01:50:42;2.40;;;2.30;;
4011;SDS011;2020;48.682;9.024;2023-05-03T01:53:08;2.30;;;2.20;;
4011;SDS011;2020;48.682;9.024;2023-05-03T01:55:33;1.97;;;1.87;;
4011;SDS011;2020;48.682;9.024;2023-05-03T01:57:59;3.60;;;3.30;;
4011;SDS011;2020;48.682;9.024;2023-05-03T02:00:24;3.60;;;2.60;;
4011;SDS011;2020;48.682;9.024;2023-05-03T02:02:49;3.30;;;3.00;;
4011;SDS011;2020;48.682;9.024;2023-05-03T02:05:15;5.53;;;3.00;;
4011;SDS011;2020;48.682;9.024;2023-05-03T02:07:40;3.67;;;3.37;;
4011;SDS011;2020;48.682;9.024;2023-05-03T02:10:06;2.20;;;2.00;;
4011;SDS011;2020;48.682;9.024;2023-05-03T02:12:32;2.57;;;2.37;;
4011;SDS011;2020;48.682;9.024;2023-05-03T02:14:57;2.60;;;2.43;;
4011;SDS011;2020;48.682;9.024;2023-05-03T02:17:23;2.90;;;2.70;;
4011;SDS011;2020;48.682;9.024;2023-05-03T02:19:50;2.97;;;2.67;;
4011;SDS011;2020;48.682;9.024;2023-05-03T02:22:16;2.33;;;2.23;;
4011;SDS011;2020;48.682;9.024;2023-05-03T02:24:41;2.80;;;2.60;;
4011;SDS011;2020;48.682;9.024;2023-05-03T02:27:07;3.10;;;2.87;;
4011;SDS011;2020;48.682;9.024;2023-05-03T02:29:32;3.40;;;3.10;;
4011;SDS011;2020;48.682;9.024;2023-05-03T02:31:58;3.47;;;3.30;;
4011;SDS011;2020;48.682;9.024;2023-05-03T02:34:23;2.93;;;2.70;;
4011;SDS011;2020;48.682;9.024;2023-05-03T02:36:48;2.40;;;2.30;;
4011;SDS011;2020;48.682;9.024;2023-05-03T02:39:13;3.20;;;2.80;;
4011;SDS011;2020;48.682;9.024;2023-05-03T02:41:39;3.03;;;2.77;;
4011;SDS011;2020;48.682;9.024;2023-05-03T02:44:04;3.30;;;3.07;;
4011;SDS011;2020;48.682;9.024;2023-05-03T02:46:29;3.43;;;3.13;;
4011;SDS011;2020;48.682;9.024;2023-05-03T02:48:55;3.03;;;2.87;;
4011;SDS011;2020;48.682;9.024;2023-05-03T02:51:20;3.60;;;3.30;;
4011;SDS011;2020;48.682;9.024;2023-05-03T02:53:45;2.93;;;2.73;;
4011;SDS011;2020;48.682;9.024;2023-05-03T02:56:11;9.70;;;2.67;;
4011;SDS011;2020;48.682;9.024;2023-05-03T02:58:36;2.50;;;2.30;;
4011;SDS011;2020;48.682;9.024;2023-05-03T03:01:01;3.23;;;2.70;;
4011;SDS011;2020;48.682;9.024;2023-05-03T03:03:27;2.17;;;2.07;;
4011;SDS011;2020;48.682;9.024;2023-05-03T03:05:52;3.80;;;3.50;;
4011;SDS011;2020;48.682;9.024;2023-05-03T03:08:17;3.30;;;3.00;;
4011;SDS011;2020;48.682;9.024;2023-05-03T03:10:42;3.50;;;2.67;;
4011;SDS011;2020;48.682;9.024;2023-05-03T03:13:08;2.80;;;2.60;;
4011;SDS011;2020;48.682;9.024;2023-05-03T03:15:33;3.47;;;2.90;;
4011;SDS011;2020;48.682;9.024;2023-05-03T03:17:58;3.60;;;3.23;;
4011;SDS011;2020;48.682;9.024;2023-05-03T03:20:23;3.50;;;3.30;;
4011;SDS011;2020;48.682;9.024;2023-05-03T03:22:49;2.93;;;2.60;;
4011;SDS011;2020;48.682;9.024;2023-05-03T03:25:14;3.27;;;2.33;;
4011;SDS011;2020;48.682;9.024;2023-05-03T03:27:40;3.77;;;3.47;;
4011;SDS011;2020;48.682;9.024;2023-05-03T03:30:06;3.97;;;2.90;;
4011;SDS011;2020;48.682;9.024;2023-05-03T03:32:32;2.60;;;2.50;;
4011;SDS011;2020;48.682;9.024;2023-05-03T03:34:57;3.17;;;2.77;;
4011;SDS011;2020;48.682;9.024;2023-05-03T03:37:23;3.50;;;3.20;;
4011;SDS011;2020;48.682;9.024;2023-05-03T03:39:48;2.03;;;1.93;;
4011;SDS011;2020;48.682;9.024;2023-05-03T03:42:13;2.90;;;2.70;;
4011;SDS011;2020;48.682;9.024;2023-05-03T03:44:39;2.40;;;2.20;;
4011;SDS011;2020;48.682;9.024;2023-05-03T03:47:04;2.90;;;2.80;;
4011;SDS011;2020;48.682;9.024;2023-05-03T03:49:30;3.20;;;2.90;;
4011;SDS011;2020;48.682;9.024;2023-05-03T03:51:55;3.50;;;3.27;;
4011;SDS011;2020;48.682;9.024;2023-05-03T03:54:20;2.73;;;2.63;;
4011;SDS011;2020;48.682;9.024;2023-05-03T03:56:46;2.93;;;2.73;;
4011;SDS011;2020;48.682;9.024;2023-05-03T03:59:11;3.50;;;3.20;;
4011;SDS011;2020;48.682;9.024;2023-05-03T04:01:36;3.53;;;3.23;;
4011;SDS011;2020;48.682;9.024;2023-05-03T04:04:01;3.10;;;2.90;;
4011;SDS011;2020;48.682;9.024;2023-05-03T04:06:28;2.90;;;2.70;;
4011;SDS011;2020;48.682;9.024;2023-05-03T04:08:54;2.50;;;2.40;;
4011;SDS011;2020;48.682;9.024;2023-05-03T04:11:19;3.43;;;2.80;;
4011;SDS011;2020;48.682;9.024;2023-05-03T04:13:45;2.40;;;2.30;;
4011;SDS011;2020;48.682;9.024;2023-05-03T04:16:10;3.43;;;3.13;;
4011;SDS011;2020;48.682;9.024;2023-05-03T04:18:36;5.43;;;3.43;;
4011;SDS011;2020;48.682;9.024;2023-05-03T04:21:01;3.47;;;2.80;;
4011;SDS011;2020;48.682;9.024;2023-05-03T04:23:26;3.50;;;3.23;;
4011;SDS011;2020;48.682;9.024;2023-05-03T04:25:52;6.40;;;4.40;;
4011;SDS011;2020;48.682;9.024;2023-05-03T04:28:17;8.00;;;4.50;;
4011;SDS011;2020;48.682;9.024;2023-05-03T04:30:43;4.07;;;3.77;;
4011;SDS011;2020;48.682;9.024;2023-05-03T04:33:10;4.30;;;3.70;;
4011;SDS011;2020;48.682;9.024;2023-05-03T04:35:36;4.40;;;3.93;;
4011;SDS011;2020;48.682;9.024;2023-05-03T04:38:01;7.13;;;4.57;;
4011;SDS011;2020;48.682;9.024;2023-05-03T04:40:27;7.20;;;4.30;;
4011;SDS011;2020;48.682;9.024;2023-05-03T04:42:52;5.90;;;4.50;;
4011;SDS011;2020;48.682;9.024;2023-05-03T04:45:18;7.10;;;5.63;;
4011;SDS011;2020;48.682;9.024;2023-05-03T04:47:44;5.63;;;4.27;;
4011;SDS011;2020;48.682;9.024;2023-05-03T04:50:10;10.30;;;5.73;;
4011;SDS011;2020;48.682;9.024;2023-05-03T04:52:36;6.63;;;4.97;;
4011;SDS011;2020;48.682;9.024;2023-05-03T04:55:01;4.80;;;4.03;;
4011;SDS011;2020;48.682;9.024;2023-05-03T04:57:27;9.03;;;4.07;;
4011;SDS011;2020;48.682;9.024;2023-05-03T04:59:53;6.93;;;4.20;;
4011;SDS011;2020;48.682;9.024;2023-05-03T05:02:18;10.77;;;4.43;;
4011;SDS011;2020;48.682;9.024;2023-05-03T05:04:43;6.97;;;4.00;;
4011;SDS011;2020;48.682;9.024;2023-05-03T05:07:09;5.90;;;4.40;;
4011;SDS011;2020;48.682;9.024;2023-05-03T05:09:36;6.90;;;4.63;;
4011;SDS011;2020;48.682;9.024;2023-05-03T05:12:01;5.47;;;5.00;;
4011;SDS011;2020;48.682;9.024;2023-05-03T05:14:28;5.60;;;5.07;;
4011;SDS011;2020;48.682;9.024;2023-05-03T05:16:54;6.87;;;4.77;;
4011;SDS011;2020;48.682;9.024;2023-05-03T05:19:19;4.53;;;4.07;;
4011;SDS011;2020;48.682;9.024;2023-05-03T05:21:44;8.23;;;5.30;;
4011;SDS011;2020;48.682;9.024;2023-05-03T05:24:10;9.30;;;5.60;;
4011;SDS011;2020;48.682;9.024;2023-05-03T05:26:35;4.73;;;4.30;;
4011;SDS011;2020;48.682;9.024;2023-05-03T05:29:00;6.60;;;4.97;;
4011;SDS011;2020;48.682;9.024;2023-05-03T05:31:25;4.23;;;3.83;;
4011;SDS011;2020;48.682;9.024;2023-05-03T05:33:51;7.67;;;5.20;;
4011;SDS011;2020;48.682;9.024;2023-05-03T05:36:16;7.10;;;5.73;;
4011;SDS011;2020;48.682;9.024;2023-05-03T05:38:41;12.30;;;5.40;;
4011;SDS011;2020;48.682;9.024;2023-05-03T05:41:07;11.67;;;5.83;;
4011;SDS011;2020;48.682;9.024;2023-05-03T05:43:32;8.10;;;5.40;;
4011;SDS011;2020;48.682;9.024;2023-05-03T05:45:57;7.80;;;5.20;;
4011;SDS011;2020;48.682;9.024;2023-05-03T05:48:23;6.77;;;5.33;;
4011;SDS011;2020;48.682;9.024;2023-05-03T05:50:48;7.60;;;5.47;;
4011;SDS011;2020;48.682;9.024;2023-05-03T05:53:14;6.40;;;5.80;;
4011;SDS011;2020;48.682;9.024;2023-05-03T05:55:39;10.40;;;6.23;;
4011;SDS011;2020;48.682;9.024;2023-05-03T05:58:04;6.00;;;5.00;;
4011;SDS011;2020;48.682;9.024;2023-05-03T06:00:30;7.10;;;5.13;;
4011;SDS011;2020;48.682;9.024;2023-05-03T06:02:55;6.20;;;5.13;;
4011;SDS011;2020;48.682;9.024;2023-05-03T06:05:20;7.60;;;6.00;;
4011;SDS011;2020;48.682;9.024;2023-05-03T06:07:46;10.07;;;7.30;;
4011;SDS011;2020;48.682;9.024;2023-05-03T06:10:12;8.30;;;5.77;;
4011;SDS011;2020;48.682;9.024;2023-05-03T06:12:37;10.07;;;6.93;;
4011;SDS011;2020;48.682;9.024;2023-05-03T06:15:03;11.03;;;6.73;;
4011;SDS011;2020;48.682;9.024;2023-05-03T06:17:29;8.90;;;7.17;;
4011;SDS011;2020;48.682;9.024;2023-05-03T06:19:54;7.23;;;5.67;;
4011;SDS011;2020;48.682;9.024;2023-05-03T06:22:21;6.00;;;5.30;;
4011;SDS011;2020;48.682;9.024;2023-05-03T06:24:46;7.40;;;5.83;;
4011;SDS011;2020;48.682;9.024;2023-05-03T06:27:11;9.37;;;7.30;;
4011;SDS011;2020;48.682;9.024;2023-05-03T06:29:36;12.13;;;6.73;;
4011;SDS011;2020;48.682;9.024;2023-05-03T06:32:02;12.20;;;6.53;;
4011;SDS011;2020;48.682;9.024;2023-05-03T06:34:27;8.83;;;5.97;;
4011;SDS011;2020;48.682;9.024;2023-05-03T06:36:53;9.13;;;5.00;;
4011;SDS011;2020;48.682;9.024;2023-05-03T06:39:18;8.47;;;7.37;;
4011;SDS011;2020;48.682;9.024;2023-05-03T06:41:44;8.63;;;6.90;;
4011;SDS011;2020;48.682;9.024;2023-05-03T06:44:09;8.30;;;6.70;;
4011;SDS011;2020;48.682;9.024;2023-05-03T06:46:34;8.33;;;5.90;;
4011;SDS011;2020;48.682;9.024;2023-05-03T06:49:00;10.97;;;6.73;;
4011;SDS011;2020;48.682;9.024;2023-05-03T06:51:26;8.97;;;6.80;;
4011;SDS011;2020;48.682;9.024;2023-05-03T06:53:53;6.20;;;5.70;;
4011;SDS011;2020;48.682;9.024;2023-05-03T06:56:20;7.77;;;6.70;;
4011;SDS011;2020;48.682;9.024;2023-05-03T06:58:45;10.90;;;7.17;;
4011;SDS011;2020;48.682;9.024;2023-05-03T07:01:11;11.43;;;6.37;;
4011;SDS011;2020;48.682;9.024;2023-05-03T07:03:36;7.83;;;6.20;;
4011;SDS011;2020;48.682;9.024;2023-05-03T07:06:01;8.30;;;6.37;;
4011;SDS011;2020;48.682;9.024;2023-05-03T07:08:27;8.23;;;7.00;;
4011;SDS011;2020;48.682;9.024;2023-05-03T07:10:53;14.90;;;6.40;;
4011;SDS011;2020;48.682;9.024;2023-05-03T07:13:18;7.93;;;7.00;;
4011;SDS011;2020;48.682;9.024;2023-05-03T07:15:43;8.40;;;6.50;;
4011;SDS011;2020;48.682;9.024;2023-05-03T07:18:10;13.43;;;7.77;;
4011;SDS011;2020;48.682;9.024;2023-05-03T07:20:35;7.50;;;6.67;;
4011;SDS011;2020;48.682;9.024;2023-05-03T07:23:00;7.97;;;7.10;;
4011;SDS011;2020;48.682;9.024;2023-05-03T07:25:26;7.87;;;7.10;;
4011;SDS011;2020;48.682;9.024;2023-05-03T07:27:51;8.40;;;7.07;;
4011;SDS011;2020;48.682;9.024;2023-05-03T07:30:16;9.63;;;6.90;;
4011;SDS011;2020;48.682;9.024;2023-05-03T07:32:42;8.20;;;6.20;;
4011;SDS011;2020;48.682;9.024;2023-05-03T07:35:07;8.07;;;6.17;;
4011;SDS011;2020;48.682;9.024;2023-05-03T07:37:33;9.63;;;7.40;;
4011;SDS011;2020;48.682;9.024;2023-05-03T07:39:58;9.70;;;7.20;;
4011;SDS011;2020;48.682;9.024;2023-05-03T07:42:23;9.73;;;8.20;;
4011;SDS011;2020;48.682;9.024;2023-05-03T07:44:49;7.07;;;6.30;;
4011;SDS011;2020;48.682;9.024;2023-05-03T07:47:14;7.27;;;6.67;;
4011;SDS011;2020;48.682;9.024;2023-05-03T07:49:40;8.33;;;7.47;;
4011;SDS011;2020;48.682;9.024;2023-05-03T07:52:05;7.90;;;7.00;;
4011;SDS011;2020;48.682;9.024;2023-05-03T07:54:30;8.40;;;6.83;;
4011;SDS011;2020;48.682;9.024;2023-05-03T07:56:56;9.30;;;7.37;;
4011;SDS011;2020;48.682;9.024;2023-05-03T07:59:21;10.60;;;7.30;;
4011;SDS011;2020;48.682;9.024;2023-05-03T08:01:46;9.00;;;7.40;;
4011;SDS011;2020;48.682;9.024;2023-05-03T08:04:12;8.10;;;7.07;;
4011;SDS011;2020;48.682;9.024;2023-05-03T08:06:37;11.87;;;6.70;;
4011;SDS011;2020;48.682;9.024;2023-05-03T08:09:02;9.17;;;7.37;;
4011;SDS011;2020;48.682;9.024;2023-05-03T08:11:28;7.73;;;7.03;;
4011;SDS011;2020;48.682;9.024;2023-05-03T08:13:54;10.10;;;7.47;;
4011;SDS011;2020;48.682;9.024;2023-05-03T08:16:20;8.07;;;7.37;;
4011;SDS011;2020;48.682;9.024;2023-05-03T08:18:45;8.10;;;6.97;;
4011;SDS011;2020;48.682;9.024;2023-05-03T08:21:11;7.17;;;6.47;;
4011;SDS011;2020;48.682;9.024;2023-05-03T08:23:37;9.20;;;8.30;;
4011;SDS011;2020;48.682;9.024;2023-05-03T08:26:03;9.93;;;7.30;;
4011;SDS011;2020;48.682;9.024;2023-05-03T08:28:31;7.27;;;6.60;;
4011;SDS011;2020;48.682;9.024;2023-05-03T08:30:56;7.43;;;6.23;;
4011;SDS011;2020;48.682;9.024;2023-05-03T08:33:22;6.70;;;6.10;;
4011;SDS011;2020;48.682;9.024;2023-05-03T08:35:47;7.47;;;6.77;;
4011;SDS011;2020;48.682;9.024;2023-05-03T08:38:13;9.33;;;6.83;;
4011;SDS011;2020;48.682;9.024;2023-05-03T08:40:39;10.07;;;6.20;;
4011;SDS011;2020;48.682;9.024;2023-05-03T08:43:08;6.83;;;6.13;;
4011;SDS011;2020;48.682;9.024;2023-05-03T08:45:34;7.83;;;7.10;;
4011;SDS011;2020;48.682;9.024;2023-05-03T08:48:00;6.23;;;5.73;;
4011;SDS011;2020;48.682;9.024;2023-05-03T08:50:27;6.73;;;5.47;;
4011;SDS011;2020;48.682;9.024;2023-05-03T08:52:53;5.40;;;5.00;;
4011;SDS011;2020;48.682;9.024;2023-05-03T08:55:18;7.70;;;6.93;;
4011;SDS011;2020;48.682;9.024;2023-05-03T08:57:43;7.00;;;6.37;;
4011;SDS011;2020;48.682;9.024;2023-05-03T09:00:09;7.40;;;6.70;;
4011;SDS011;2020;48.682;9.024;2023-05-03T09:02:36;7.33;;;6.50;;
4011;SDS011;2020;48.682;9.024;2023-05-03T09:05:48;7.40;;;6.67;;
4011;SDS011;2020;48.682;9.024;2023-05-03T09:08:00;7.40;;;6.30;;
4011;SDS011;2020;48.682;9.024;2023-05-03T09:10:30;7.50;;;4.93;;
4011;SDS011;2020;48.682;9.024;2023-05-03T09:13:00;6.57;;;5.97;;
4011;SDS011;2020;48.682;9.024;2023-05-03T09:15:27;5.33;;;4.90;;
4011;SDS011;2020;48.682;9.024;2023-05-03T09:18:07;6.30;;;5.70;;
4011;SDS011;2020;48.682;9.024;2023-05-03T09:20:33;5.87;;;5.33;;
4011;SDS011;2020;48.682;9.024;2023-05-03T09:23:00;5.17;;;4.87;;
4011;SDS011;2020;48.682;9.024;2023-05-03T09:25:38;6.27;;;5.80;;
4011;SDS011;2020;48.682;9.024;2023-05-03T09:28:14;5.37;;;4.97;;
4011;SDS011;2020;48.682;9.024;2023-05-03T09:30:41;5.63;;;5.23;;
4011;SDS011;2020;48.682;9.024;2023-05-03T09:33:07;5.87;;;4.90;;
4011;SDS011;2020;48.682;9.024;2023-05-03T09:35:33;5.70;;;5.20;;
4011;SDS011;2020;48.682;9.024;2023-05-03T09:37:59;5.37;;;5.00;;
4011;SDS011;2020;48.682;9.024;2023-05-03T09:40:25;5.63;;;5.00;;
4011;SDS011;2020;48.682;9.024;2023-05-03T09:43:04;6.97;;;6.30;;
4011;SDS011;2020;48.682;9.024;2023-05-03T09:45:31;7.17;;;5.37;;
4011;SDS011;2020;48.682;9.024;2023-05-03T09:47:56;7.73;;;5.00;;
4011;SDS011;2020;48.682;9.024;2023-05-03T09:50:22;5.77;;;5.27;;
4011;SDS011;2020;48.682;9.024;2023-05-03T09:52:48;5.10;;;4.80;;
4011;SDS011;2020;48.682;9.024;2023-05-03T09:55:15;5.40;;;4.90;;
4011;SDS011;2020;48.682;9.024;2023-05-03T09:57:41;4.87;;;4.57;;
4011;SDS011;2020;48.682;9.024;2023-05-03T10:00:10;6.50;;;6.00;;
4011;SDS011;2020;48.682;9.024;2023-05-03T10:02:37;5.80;;;5.30;;
4011;SDS011;2020;48.682;9.024;2023-05-03T10:05:05;5.27;;;4.87;;
4011;SDS011;2020;48.682;9.024;2023-05-03T10:07:32;4.93;;;4.63;;
4011;SDS011;2020;48.682;9.024;2023-05-03T10:09:58;4.50;;;4.20;;
4011;SDS011;2020;48.682;9.024;2023-05-03T10:12:23;4.83;;;4.47;;
4011;SDS011;2020;48.682;9.024;2023-05-03T10:14:51;6.20;;;5.70;;
4011;SDS011;2020;48.682;9.024;2023-05-03T10:19:52;5.43;;;4.90;;
4011;SDS011;2020;48.682;9.024;2023-05-03T10:22:21;5.63;;;5.20;;
4011;SDS011;2020;48.682;9.024;2023-05-03T10:27:21;3.83;;;3.63;;
4011;SDS011;2020;48.682;9.024;2023-05-03T10:29:46;4.40;;;4.10;;
4011;SDS011;2020;48.682;9.024;2023-05-03T10:32:31;4.80;;;4.40;;
4011;SDS011;2020;48.682;9.024;2023-05-03T10:34:58;5.10;;;4.60;;
4011;SDS011;2020;48.682;9.024;2023-05-03T10:37:26;4.50;;;4.20;;
4011;SDS011;2020;48.682;9.024;2023-05-03T10:39:52;4.73;;;4.40;;
4011;SDS011;2020;48.682;9.024;2023-05-03T10:42:19;3.90;;;3.70;;
4011;SDS011;2020;48.682;9.024;2023-05-03T10:44:49;4.37;;;4.07;;
4011;SDS011;2020;48.682;9.024;2023-05-03T10:47:17;4.87;;;4.47;;
4011;SDS011;2020;48.682;9.024;2023-05-03T10:49:44;3.67;;;3.43;;
4011;SDS011;2020;48.682;9.024;2023-05-03T10:55:14;4.23;;;3.97;;
4011;SDS011;2020;48.682;9.024;2023-05-03T10:57:43;3.93;;;3.73;;
4011;SDS011;2020;48.682;9.024;2023-05-03T11:00:11;4.47;;;4.10;;
4011;SDS011;2020;48.682;9.024;2023-05-03T11:05:42;4.00;;;3.73;;
4011;SDS011;2020;48.682;9.024;2023-05-03T11:10:37;3.70;;;3.40;;
4011;SDS011;2020;48.682;9.024;2023-05-03T11:13:03;4.00;;;3.80;;
4011;SDS011;2020;48.682;9.024;2023-05-03T11:15:28;3.27;;;3.10;;
4011;SDS011;2020;48.682;9.024;2023-05-03T11:17:54;4.43;;;4.10;;
4011;SDS011;2020;48.682;9.024;2023-05-03T11:20:20;4.23;;;3.93;;
4011;SDS011;2020;48.682;9.024;2023-05-03T11:22:45;4.57;;;4.27;;
4011;SDS011;2020;48.682;9.024;2023-05-03T11:25:11;4.10;;;3.77;;
4011;SDS011;2020;48.682;9.024;2023-05-03T11:27:36;3.37;;;3.27;;
4011;SDS011;2020;48.682;9.024;2023-05-03T11:30:01;3.67;;;3.47;;
4011;SDS011;2020;48.682;9.024;2023-05-03T11:32:27;3.43;;;3.23;;
4011;SDS011;2020;48.682;9.024;2023-05-03T11:34:54;4.13;;;3.90;;
4011;SDS011;2020;48.682;9.024;2023-05-03T11:37:20;3.40;;;3.20;;
4011;SDS011;2020;48.682;9.024;2023-05-03T11:39:45;4.60;;;4.20;;
4011;SDS011;2020;48.682;9.024;2023-05-03T11:42:11;4.70;;;4.40;;
4011;SDS011;2020;48.682;9.024;2023-05-03T11:44:37;4.27;;;3.97;;
4011;SDS011;2020;48.682;9.024;2023-05-03T11:47:03;4.00;;;3.80;;
4011;SDS011;2020;48.682;9.024;2023-05-03T11:49:28;2.93;;;2.70;;
4011;SDS011;2020;48.682;9.024;2023-05-03T11:51:54;3.27;;;3.17;;
4011;SDS011;2020;48.682;9.024;2023-05-03T11:54:20;4.17;;;3.97;;
4011;SDS011;2020;48.682;9.024;2023-05-03T11:56:46;4.63;;;3.70;;
4011;SDS011;2020;48.682;9.024;2023-05-03T11:59:11;3.33;;;3.10;;
4011;SDS011;2020;48.682;9.024;2023-05-03T12:01:36;3.87;;;3.60;;
4011;SDS011;2020;48.682;9.024;2023-05-03T12:04:02;3.60;;;3.40;;
4011;SDS011;2020;48.682;9.024;2023-05-03T12:06:32;2.57;;;2.47;;
4011;SDS011;2020;48.682;9.024;2023-05-03T12:08:59;4.90;;;4.23;;
4011;SDS011;2020;48.682;9.024;2023-05-03T12:11:25;2.80;;;2.70;;
4011;SDS011;2020;48.682;9.024;2023-05-03T12:13:59;3.37;;;3.17;;
4011;SDS011;2020;48.682;9.024;2023-05-03T12:16:26;3.47;;;3.27;;
4011;SDS011;2020;48.682;9.024;2023-05-03T12:18:56;4.17;;;3.93;;
4011;SDS011;2020;48.682;9.024;2023-05-03T12:21:42;2.70;;;2.60;;
4011;SDS011;2020;48.682;9.024;2023-05-03T12:24:09;2.70;;;2.60;;
4011;SDS011;2020;48.682;9.024;2023-05-03T12:26:34;2.87;;;2.77;;
4011;SDS011;2020;48.682;9.024;2023-05-03T12:28:59;3.00;;;2.80;;
4011;SDS011;2020;48.682;9.024;2023-05-03T12:31:25;3.03;;;2.83;;
4011;SDS011;2020;48.682;9.024;2023-05-03T12:33:51;4.60;;;3.13;;
4011;SDS011;2020;48.682;9.024;2023-05-03T12:36:17;3.20;;;3.00;;
4011;SDS011;2020;48.682;9.024;2023-05-03T12:38:43;2.80;;;2.63;;
4011;SDS011;2020;48.682;9.024;2023-05-03T12:41:08;2.80;;;2.60;;
4011;SDS011;2020;48.682;9.024;2023-05-03T12:43:33;4.03;;;3.57;;
4011;SDS011;2020;48.682;9.024;2023-05-03T12:45:59;3.40;;;3.20;;
4011;SDS011;2020;48.682;9.024;2023-05-03T12:48:26;3.77;;;3.47;;
4011;SDS011;2020;48.682;9.024;2023-05-03T12:50:52;4.83;;;2.47;;
4011;SDS011;2020;48.682;9.024;2023-05-03T12:53:19;2.67;;;2.57;;
4011;SDS011;2020;48.682;9.024;2023-05-03T12:55:46;2.60;;;2.50;;
4011;SDS011;2020;48.682;9.024;2023-05-03T12:58:11;2.90;;;2.80;;
4011;SDS011;2020;48.682;9.024;2023-05-03T13:00:36;3.10;;;3.00;;
4011;SDS011;2020;48.682;9.024;2023-05-03T13:03:02;3.10;;;3.00;;
4011;SDS011;2020;48.682;9.024;2023-05-03T13:05:28;3.67;;;3.50;;
4011;SDS011;2020;48.682;9.024;2023-05-03T13:07:53;3.50;;;3.30;;
4011;SDS011;2020;48.682;9.024;2023-05-03T13:10:19;2.57;;;2.47;;
4011;SDS011;2020;48.682;9.024;2023-05-03T13:12:44;2.63;;;2.53;;
4011;SDS011;2020;48.682;9.024;2023-05-03T13:15:10;3.07;;;2.87;;
4011;SDS011;2020;48.682;9.024;2023-05-03T13:17:35;3.30;;;3.13;;
4011;SDS011;2020;48.682;9.024;2023-05-03T13:20:00;2.00;;;2.00;;
4011;SDS011;2020;48.682;9.024;2023-05-03T13:22:25;2.63;;;2.53;;
4011;SDS011;2020;48.682;9.024;2023-05-03T13:24:51;2.80;;;2.67;;
4011;SDS011;2020;48.682;9.024;2023-05-03T13:27:16;2.80;;;2.60;;
4011;SDS011;2020;48.682;9.024;2023-05-03T13:29:42;3.10;;;2.83;;
4011;SDS011;2020;48.682;9.024;2023-05-03T13:32:07;2.60;;;2.50;;
4011;SDS011;2020;48.682;9.024;2023-05-03T13:34:33;2.90;;;2.80;;
4011;SDS011;2020;48.682;9.024;2023-05-03T13:37:02;3.53;;;3.17;;
4011;SDS011;2020;48.682;9.024;2023-05-03T13:39:31;2.53;;;2.43;;
4011;SDS011;2020;48.682;9.024;2023-05-03T13:41:56;2.53;;;2.43;;
4011;SDS011;2020;48.682;9.024;2023-05-03T13:44:21;2.57;;;2.47;;
4011;SDS011;2020;48.682;9.024;2023-05-03T13:46:50;2.90;;;2.70;;
4011;SDS011;2020;48.682;9.024;2023-05-03T13:49:16;2.73;;;2.53;;
4011;SDS011;2020;48.682;9.024;2023-05-03T13:51:42;2.60;;;2.50;;
4011;SDS011;2020;48.682;9.024;2023-05-03T13:54:07;3.03;;;2.90;;
4011;SDS011;2020;48.682;9.024;2023-05-03T13:56:33;3.17;;;3.07;;
4011;SDS011;2020;48.682;9.024;2023-05-03T13:58:59;2.13;;;2.13;;
4011;SDS011;2020;48.682;9.024;2023-05-03T14:01:24;2.40;;;2.30;;
4011;SDS011;2020;48.682;9.024;2023-05-03T14:03:51;2.57;;;2.43;;
4011;SDS011;2020;48.682;9.024;2023-05-03T14:06:18;2.30;;;2.20;;
4011;SDS011;2020;48.682;9.024;2023-05-03T14:08:44;2.97;;;2.87;;
4011;SDS011;2020;48.682;9.024;2023-05-03T14:11:13;2.47;;;2.27;;
4011;SDS011;2020;48.682;9.024;2023-05-03T14:13:39;2.23;;;2.13;;
4011;SDS011;2020;48.682;9.024;2023-05-03T14:16:05;2.20;;;2.10;;
4011;SDS011;2020;48.682;9.024;2023-05-03T14:18:31;2.67;;;2.50;;
4011;SDS011;2020;48.682;9.024;2023-05-03T14:20:56;2.60;;;2.50;;
4011;SDS011;2020;48.682;9.024;2023-05-03T14:23:23;3.10;;;3.00;;
4011;SDS011;2020;48.682;9.024;2023-05-03T14:25:48;2.30;;;2.20;;
4011;SDS011;2020;48.682;9.024;2023-05-03T14:28:14;1.90;;;1.80;;
4011;SDS011;2020;48.682;9.024;2023-05-03T14:30:39;3.17;;;3.07;;
4011;SDS011;2020;48.682;9.024;2023-05-03T14:33:04;2.40;;;2.30;;
4011;SDS011;2020;48.682;9.024;2023-05-03T14:35:30;2.97;;;2.23;;
4011;SDS011;2020;48.682;9.024;2023-05-03T14:37:55;2.43;;;2.33;;
4011;SDS011;2020;48.682;9.024;2023-05-03T14:40:20;2.20;;;2.10;;
4011;SDS011;2020;48.682;9.024;2023-05-03T14:42:46;2.80;;;2.33;;
4011;SDS011;2020;48.682;9.024;2023-05-03T14:45:11;3.17;;;2.43;;
4011;SDS011;2020;48.682;9.024;2023-05-03T14:47:39;2.17;;;2.07;;
4011;SDS011;2020;48.682;9.024;2023-05-03T14:50:05;2.23;;;2.23;;
4011;SDS011;2020;48.682;9.024;2023-05-03T14:52:30;2.10;;;2.00;;
4011;SDS011;2020;48.682;9.024;2023-05-03T14:54:56;2.70;;;2.10;;
4011;SDS011;2020;48.682;9.024;2023-05-03T14:57:21;2.30;;;2.20;;
4011;SDS011;2020;48.682;9.024;2023-05-03T14:59:46;3.30;;;2.00;;
4011;SDS011;2020;48.682;9.024;2023-05-03T15:02:11;2.17;;;2.07;;
4011;SDS011;2020;48.682;9.024;2023-05-03T15:04:37;2.30;;;2.20;;
4011;SDS011;2020;48.682;9.024;2023-05-03T15:07:02;2.00;;;1.93;;
4011;SDS011;2020;48.682;9.024;2023-05-03T15:09:29;1.50;;;1.50;;
4011;SDS011;2020;48.682;9.024;2023-05-03T15:11:55;4.27;;;1.87;;
4011;SDS011;2020;48.682;9.024;2023-05-03T15:14:20;2.90;;;2.80;;
4011;SDS011;2020;48.682;9.024;2023-05-03T15:16:46;1.87;;;1.83;;
4011;SDS011;2020;48.682;9.024;2023-05-03T15:19:11;2.97;;;2.43;;
4011;SDS011;2020;48.682;9.024;2023-05-03T15:21:46;1.80;;;1.80;;
4011;SDS011;2020;48.682;9.024;2023-05-03T15:24:13;2.80;;;2.60;;
4011;SDS011;2020;48.682;9.024;2023-05-03T15:26:39;1.93;;;1.93;;
4011;SDS011;2020;48.682;9.024;2023-05-03T15:29:04;2.03;;;1.93;;
4011;SDS011;2020;48.682;9.024;2023-05-03T15:31:30;1.73;;;1.73;;